Portada
METAR-TAF:

METAR-TAF

Aeropuertos :

Pionyang, Corea del Norte

Aeropuerto Internacional de Sunan

latitud: 39-02N, longitud: 125-47E, altitud: 36 m

METAR: falta

Hora: 09:40 (01:10 UTC)

Pronóstico

El informe se hizo hace 3 horas y 30 minutos, a las 21:40 UTC
Pronóstico válido del 27 a las 00 UTC al 27 a las 24 UTC
Viento 10 kt del noroeste
Visibilidad 10 km o más
sin nubes por debajo de 1500 m y sin presencia de cumulonimbus.
Evolucionando progresivamente
del 27 a las 04 UTC al 27 a las 06 UTC
Viento 16 kt del oeste
Evolucionando progresivamente
del 27 a las 12 UTC al 27 a las 14 UTC
Viento 8 kt del oeste-noroeste

TAF: ZKPY 262140Z 2700/2724 32005MPS CAVOK BECMG 2704/2706 28008MPS BECMG 2712/2714 30004MPS

Observaciones y pronósticos meteorológicos de más de 4000 aeropuertos (mensajes METAR y TAF).

Los puntos amarillos y rojos representan las estaciones disponibles.

Ponga el ratón en el punto deseado para ver el nombre de la estación.

Haga clic para ver las observaciones y los pronósticos meteorológicos.

Para cambiar el mapa : haga clic en los botones verdes con una cruz de color negro para hacer un zoom, en el botón verde con un guión para alejar o en las flechas verdes para mapas adyacentes.


METAR-TAF: